Time;durP1;ratioP1;P1;durP2;ratioP2;P2;SDS_P1;SDS_P2;PMS_P1;PMS_P2;Temp;Humidity;BMP_temperature;BMP_pressure;BME280_temperature;BME280_humidity;BME280_pressure;Samples;Min_cycle;Max_cycle;Signal;HPM_P1;HPM_P2
2023/09/23 00:01:34;;;;;;;;;;;;;;;;;;5000723;28;99408;-75
2023/09/23 00:04:01;;;;;;;2.45;1.48;;;;;;;;;;5010143;28;126562;-75
2023/09/23 00:06:28;;;;;;;1.73;1.63;;;;;;;;;;5006341;28;99346;-75
2023/09/23 00:08:55;;;;;;;1.63;1.13;;;;;;;;;;5007493;28;101181;-75
2023/09/23 00:11:22;;;;;;;1.50;1.15;;;;;;;;;;5007810;28;98217;-74
2023/09/23 00:13:48;;;;;;;1.60;1.52;;;;;;;;;;5008217;28;99390;-75
2023/09/23 00:16:15;;;;;;;2.63;1.60;;;;;;;;;;5006630;28;99931;-76
2023/09/23 00:18:45;;;;;;;2.20;1.55;;;;;;;;;;5007485;28;98216;-74
2023/09/23 00:21:13;;;;;;;3.00;1.73;;;;;;;;;;5007077;28;100565;-75
2023/09/23 00:23:39;;;;;;;3.53;1.58;;;;;;;;;;5000730;28;100121;-75
2023/09/23 00:26:10;;;;;;;2.47;1.88;;;;;;;;;;5009794;28;98555;-74
2023/09/23 00:28:36;;;;;;;2.15;2.05;;;;;;;;;;5007636;28;100355;-75
2023/09/23 00:31:11;;;;;;;4.85;2.30;;;;;;;;;;5006144;28;99561;-76
2023/09/23 00:33:38;;;;;;;2.70;1.92;;;;;;;;;;5006156;28;98426;-76
2023/09/23 00:36:06;;;;;;;2.40;2.20;;;;;;;;;;5006330;28;101589;-75
2023/09/23 00:38:33;;;;;;;2.72;2.47;;;;;;;;;;5005574;28;98272;-75
2023/09/23 00:41:01;;;;;;;4.63;2.47;;;;;;;;;;5005827;28;101368;-75
2023/09/23 00:43:27;;;;;;;2.90;2.70;;;;;;;;;;5007552;28;98692;-74
2023/09/23 00:45:58;;;;;;;2.90;2.70;;;;;;;;;;5006400;28;98433;-75
2023/09/23 00:48:25;;;;;;;3.67;2.75;;;;;;;;;;5007913;28;99448;-76
2023/09/23 00:50:52;;;;;;;3.45;2.83;;;;;;;;;;5006731;28;99393;-75
2023/09/23 00:53:23;;;;;;;3.08;2.80;;;;;;;;;;5005785;28;99302;-74
2023/09/23 00:55:55;;;;;;;5.60;2.80;;;;;;;;;;5004696;28;101702;-74
2023/09/23 00:58:22;;;;;;;2.53;2.43;;;;;;;;;;5002466;28;99468;-74
2023/09/23 01:00:49;;;;;;;2.90;2.70;;;;;;;;;;5007567;28;100699;-75
2023/09/23 01:03:16;;;;;;;3.17;2.85;;;;;;;;;;5007458;28;99974;-75
2023/09/23 01:05:46;;;;;;;3.45;3.15;;;;;;;;;;5006606;28;98563;-75
2023/09/23 01:08:19;;;;;;;2.75;2.38;;;;;;;;;;5009986;28;98604;-75
2023/09/23 01:10:47;;;;;;;5.03;2.72;;;;;;;;;;5005390;28;98410;-75
2023/09/23 01:13:13;;;;;;;5.07;2.17;;;;;;;;;;5005259;28;99153;-76
2023/09/23 01:15:41;;;;;;;2.13;1.92;;;;;;;;;;5007189;28;99131;-75
2023/09/23 01:18:08;;;;;;;1.98;1.88;;;;;;;;;;5007188;28;98209;-75
2023/09/23 01:20:37;;;;;;;2.00;1.85;;;;;;;;;;5003913;28;98642;-76
2023/09/23 01:23:05;;;;;;;2.22;2.03;;;;;;;;;;5003417;28;98869;-75
2023/09/23 01:25:35;;;;;;;6.38;1.90;;;;;;;;;;5007217;28;98423;-75
2023/09/23 01:28:12;;;;;;;2.10;2.00;;;;;;;;;;5001583;28;99537;-75
2023/09/23 01:30:40;;;;;;;2.38;2.03;;;;;;;;;;5041322;27;100939;-75
2023/09/23 01:33:08;;;;;;;2.47;2.28;;;;;;;;;;5007066;28;100447;-74
2023/09/23 01:35:35;;;;;;;2.65;2.45;;;;;;;;;;5003043;28;101547;-75
2023/09/23 01:38:03;;;;;;;2.65;2.45;;;;;;;;;;5007311;28;98772;-73
2023/09/23 01:40:31;;;;;;;2.67;2.22;;;;;;;;;;5004078;28;100976;-75
2023/09/23 01:42:58;;;;;;;3.53;3.13;;;;;;;;;;5006101;28;98987;-74
2023/09/23 01:45:25;;;;;;;3.53;3.33;;;;;;;;;;5004058;28;98259;-74
2023/09/23 01:47:52;;;;;;;4.28;3.42;;;;;;;;;;5005105;28;98900;-73
2023/09/23 01:50:19;;;;;;;7.47;5.07;;;;;;;;;;5006779;28;98771;-73
2023/09/23 01:52:46;;;;;;;5.20;4.80;;;;;;;;;;5010146;28;98535;-76
2023/09/23 01:55:12;;;;;;;7.18;6.32;;;;;;;;;;5005800;28;99317;-74
2023/09/23 01:57:39;;;;;;;6.68;6.07;;;;;;;;;;5005475;28;98260;-75
2023/09/23 02:00:07;;;;;;;9.73;7.13;;;;;;;;;;5004114;28;98561;-74
2023/09/23 02:02:40;;;;;;;10.18;7.72;;;;;;;;;;5005247;28;99682;-74
2023/09/23 02:05:07;;;;;;;14.63;9.50;;;;;;;;;;5006641;28;98608;-75
2023/09/23 02:07:33;;;;;;;13.27;10.55;;;;;;;;;;5004886;28;99312;-75
2023/09/23 02:10:00;;;;;;;12.13;10.05;;;;;;;;;;5005730;28;99152;-74
2023/09/23 02:12:27;;;;;;;11.35;10.15;;;;;;;;;;5005425;28;99377;-75
2023/09/23 02:14:53;;;;;;;19.40;10.85;;;;;;;;;;5007159;28;100695;-75
2023/09/23 02:17:20;;;;;;;12.40;11.00;;;;;;;;;;5004424;28;98605;-75
2023/09/23 02:19:51;;;;;;;19.55;11.50;;;;;;;;;;5004810;28;98903;-76
2023/09/23 02:22:18;;;;;;;19.25;11.45;;;;;;;;;;4998614;28;99071;-76
2023/09/23 02:24:46;;;;;;;14.13;11.57;;;;;;;;;;5005138;28;98271;-75
2023/09/23 02:27:13;;;;;;;18.65;13.10;;;;;;;;;;5004719;28;99415;-76
2023/09/23 02:29:42;;;;;;;18.13;12.13;;;;;;;;;;5006050;28;99342;-74
2023/09/23 02:32:09;;;;;;;16.70;13.50;;;;;;;;;;5006011;28;98268;-75
2023/09/23 02:34:37;;;;;;;14.80;12.93;;;;;;;;;;5005619;28;99550;-76
2023/09/23 02:37:04;;;;;;;19.00;13.32;;;;;;;;;;5007924;28;100474;-75
2023/09/23 02:39:31;;;;;;;20.65;14.27;;;;;;;;;;5006385;28;98477;-75
2023/09/23 02:41:59;;;;;;;17.75;12.98;;;;;;;;;;5005985;28;98822;-74
2023/09/23 02:44:29;;;;;;;24.20;14.30;;;;;;;;;;5003936;28;98577;-75
2023/09/23 02:46:56;;;;;;;20.35;15.50;;;;;;;;;;5005906;28;99078;-76
2023/09/23 02:49:23;;;;;;;23.98;15.43;;;;;;;;;;5003619;28;101433;-75
2023/09/23 02:51:49;;;;;;;20.42;15.23;;;;;;;;;;5004805;28;98176;-76
2023/09/23 02:54:18;;;;;;;22.55;13.45;;;;;;;;;;5006839;28;99409;-75
2023/09/23 02:56:47;;;;;;;19.95;15.45;;;;;;;;;;5009200;28;98830;-75
2023/09/23 02:59:15;;;;;;;21.17;15.10;;;;;;;;;;5004165;28;98267;-76
2023/09/23 03:01:45;;;;;;;21.15;14.52;;;;;;;;;;5008267;28;99673;-74
2023/09/23 03:04:23;;;;;;;20.30;15.23;;;;;;;;;;5009365;28;98306;-74
2023/09/23 03:06:55;;;;;;;19.67;15.55;;;;;;;;;;5009100;28;98814;-75
2023/09/23 03:09:24;;;;;;;22.48;15.43;;;;;;;;;;5008089;28;98818;-76
2023/09/23 03:11:55;;;;;;;25.10;17.13;;;;;;;;;;5006678;28;98499;-75
2023/09/23 03:14:29;;;;;;;32.42;15.65;;;;;;;;;;5007558;28;98921;-75
2023/09/23 03:16:57;;;;;;;24.10;15.55;;;;;;;;;;5007352;28;99068;-75
2023/09/23 03:19:26;;;;;;;22.52;16.88;;;;;;;;;;5011234;28;98659;-75
2023/09/23 03:21:57;;;;;;;20.17;15.30;;;;;;;;;;5008712;28;100052;-74
2023/09/23 03:24:26;;;;;;;21.75;15.70;;;;;;;;;;5008472;28;98240;-75
2023/09/23 03:26:53;;;;;;;20.13;14.45;;;;;;;;;;5008166;28;98331;-75
2023/09/23 03:29:20;;;;;;;18.65;15.98;;;;;;;;;;5008549;28;98642;-75
2023/09/23 03:31:48;;;;;;;23.80;17.60;;;;;;;;;;5007856;28;98304;-76
2023/09/23 03:34:16;;;;;;;22.70;16.40;;;;;;;;;;5005543;28;99964;-76
2023/09/23 03:36:46;;;;;;;21.48;16.33;;;;;;;;;;5008231;28;98651;-75
2023/09/23 03:39:13;;;;;;;23.98;15.50;;;;;;;;;;5007746;28;98153;-76
2023/09/23 03:41:41;;;;;;;24.23;16.98;;;;;;;;;;5010288;28;99551;-76
2023/09/23 03:44:07;;;;;;;23.88;16.33;;;;;;;;;;5008994;28;98323;-75
2023/09/23 03:46:34;;;;;;;20.05;15.50;;;;;;;;;;5006915;28;98873;-75
2023/09/23 03:49:00;;;;;;;22.80;16.13;;;;;;;;;;5008660;28;99269;-76
2023/09/23 03:51:27;;;;;;;21.63;15.63;;;;;;;;;;5009174;28;98666;-75
2023/09/23 03:53:53;;;;;;;23.02;16.45;;;;;;;;;;5008121;28;98595;-77
2023/09/23 03:56:24;;;;;;;25.88;16.52;;;;;;;;;;5005610;28;102260;-73
2023/09/23 03:58:52;;;;;;;25.90;16.77;;;;;;;;;;5006845;28;98227;-75
2023/09/23 04:01:19;;;;;;;25.92;17.48;;;;;;;;;;5005924;28;98761;-75
2023/09/23 04:03:46;;;;;;;22.67;16.10;;;;;;;;;;5007726;28;100321;-75
2023/09/23 04:06:13;;;;;;;23.50;15.45;;;;;;;;;;5007970;28;98559;-75
2023/09/23 04:08:39;;;;;;;23.48;16.25;;;;;;;;;;5007448;28;99951;-75
2023/09/23 04:11:09;;;;;;;28.17;16.75;;;;;;;;;;5008672;28;98291;-74
2023/09/23 04:13:36;;;;;;;19.33;14.50;;;;;;;;;;5007846;28;98897;-75
2023/09/23 04:16:03;;;;;;;21.70;15.70;;;;;;;;;;5006074;28;100032;-76
2023/09/23 04:18:30;;;;;;;19.58;13.75;;;;;;;;;;5007674;28;98252;-75
2023/09/23 04:21:01;;;;;;;21.33;15.55;;;;;;;;;;5008632;28;98634;-75
2023/09/23 04:23:27;;;;;;;17.65;13.70;;;;;;;;;;5006172;28;99425;-75
2023/09/23 04:25:53;;;;;;;18.92;13.35;;;;;;;;;;5011506;28;98244;-74
2023/09/23 04:28:20;;;;;;;21.15;15.98;;;;;;;;;;5006399;28;102045;-74
2023/09/23 04:30:46;;;;;;;26.63;15.23;;;;;;;;;;5005980;28;99735;-75
2023/09/23 04:33:13;;;;;;;18.05;13.73;;;;;;;;;;5007471;28;100223;-75
2023/09/23 04:35:40;;;;;;;16.73;13.60;;;;;;;;;;5006859;28;100687;-75
2023/09/23 04:38:06;;;;;;;18.60;12.75;;;;;;;;;;5006942;28;98502;-75
2023/09/23 04:40:33;;;;;;;20.40;14.13;;;;;;;;;;5007496;28;99577;-75
2023/09/23 04:43:00;;;;;;;16.00;12.95;;;;;;;;;;5007597;28;99922;-76
2023/09/23 04:45:26;;;;;;;18.42;12.30;;;;;;;;;;5007481;28;98265;-76
2023/09/23 04:47:53;;;;;;;19.45;12.00;;;;;;;;;;5010217;28;99501;-75
2023/09/23 04:50:23;;;;;;;21.05;14.05;;;;;;;;;;5006942;28;98497;-75
2023/09/23 04:52:50;;;;;;;24.88;13.23;;;;;;;;;;5005774;28;99354;-76
2023/09/23 04:55:16;;;;;;;16.23;11.95;;;;;;;;;;4998183;28;100781;-76
2023/09/23 04:57:43;;;;;;;20.55;13.80;;;;;;;;;;5006744;28;98276;-75
2023/09/23 05:00:14;;;;;;;20.77;13.10;;;;;;;;;;5007880;28;100061;-74
2023/09/23 05:02:42;;;;;;;20.80;12.45;;;;;;;;;;5007333;28;99653;-75
2023/09/23 05:05:09;;;;;;;26.88;12.90;;;;;;;;;;5006299;28;98495;-75
2023/09/23 05:07:37;;;;;;;18.42;11.88;;;;;;;;;;5006189;28;98552;-77
2023/09/23 05:10:05;;;;;;;23.27;12.90;;;;;;;;;;5002989;28;98341;-75
2023/09/23 05:12:31;;;;;;;19.70;12.02;;;;;;;;;;5006523;28;99397;-76
2023/09/23 05:14:58;;;;;;;16.75;12.63;;;;;;;;;;5006020;28;99845;-75
2023/09/23 05:17:27;;;;;;;19.10;12.57;;;;;;;;;;5005091;28;98243;-75
2023/09/23 05:19:54;;;;;;;19.70;11.82;;;;;;;;;;5006281;28;99672;-75
2023/09/23 05:22:20;;;;;;;16.80;11.60;;;;;;;;;;5006106;28;99409;-75
2023/09/23 05:24:50;;;;;;;15.15;11.45;;;;;;;;;;5007701;27;98247;-74
2023/09/23 05:27:18;;;;;;;21.73;12.75;;;;;;;;;;5006763;28;99378;-76
2023/09/23 05:29:45;;;;;;;14.90;11.25;;;;;;;;;;5010378;28;100281;-75
2023/09/23 05:32:12;;;;;;;12.80;11.38;;;;;;;;;;5006684;28;99157;-76
2023/09/23 05:34:39;;;;;;;13.95;11.25;;;;;;;;;;5006215;28;99351;-75
2023/09/23 05:37:11;;;;;;;23.65;11.98;;;;;;;;;;5005868;28;98375;-75
2023/09/23 05:39:44;;;;;;;12.55;11.13;;;;;;;;;;5006144;28;98806;-77
2023/09/23 05:42:13;;;;;;;26.58;11.60;;;;;;;;;;5005852;28;99361;-76
2023/09/23 05:44:40;;;;;;;19.38;10.93;;;;;;;;;;5006718;28;98528;-75
2023/09/23 05:47:08;;;;;;;16.35;11.30;;;;;;;;;;5005994;28;99875;-76
2023/09/23 05:49:35;;;;;;;15.15;11.77;;;;;;;;;;5005639;28;99805;-74
2023/09/23 05:52:01;;;;;;;15.15;11.52;;;;;;;;;;5009475;28;98683;-76
2023/09/23 05:54:28;;;;;;;14.30;11.05;;;;;;;;;;5004383;28;100057;-74
2023/09/23 05:56:54;;;;;;;15.90;11.20;;;;;;;;;;5006566;28;98239;-76
2023/09/23 05:59:20;;;;;;;17.65;11.50;;;;;;;;;;5006537;28;98753;-74
2023/09/23 06:01:48;;;;;;;14.63;10.88;;;;;;;;;;5005999;28;100579;-75
2023/09/23 06:04:15;;;;;;;17.63;11.40;;;;;;;;;;5006710;27;98450;-75
2023/09/23 06:06:41;;;;;;;17.35;11.68;;;;;;;;;;5005552;28;98968;-76
2023/09/23 06:09:08;;;;;;;12.88;10.23;;;;;;;;;;5004502;28;100026;-76
2023/09/23 06:11:35;;;;;;;12.32;10.00;;;;;;;;;;5006715;28;98239;-79
2023/09/23 06:14:01;;;;;;;16.35;10.30;;;;;;;;;;5008256;28;100684;-78
2023/09/23 06:16:28;;;;;;;12.23;9.85;;;;;;;;;;5004991;28;98773;-77
2023/09/23 06:18:55;;;;;;;18.63;9.27;;;;;;;;;;4999341;28;99376;-76
2023/09/23 06:21:21;;;;;;;14.10;8.73;;;;;;;;;;5005816;28;100559;-76
2023/09/23 06:23:47;;;;;;;10.65;9.15;;;;;;;;;;5005733;28;98355;-75
2023/09/23 06:26:14;;;;;;;7.97;7.15;;;;;;;;;;5006026;28;98989;-77
2023/09/23 06:28:41;;;;;;;13.20;7.65;;;;;;;;;;5008735;28;99013;-78
2023/09/23 06:31:10;;;;;;;8.00;7.07;;;;;;;;;;5008969;28;98235;-78
2023/09/23 06:33:37;;;;;;;14.27;7.60;;;;;;;;;;5009961;28;99852;-78
2023/09/23 06:36:04;;;;;;;11.48;7.78;;;;;;;;;;5013528;28;100052;-79
2023/09/23 06:38:32;;;;;;;12.15;6.68;;;;;;;;;;5011438;28;98915;-78
2023/09/23 06:40:58;;;;;;;10.13;6.57;;;;;;;;;;5010636;28;100050;-78
2023/09/23 06:43:25;;;;;;;8.85;6.35;;;;;;;;;;5008556;28;98081;-77
2023/09/23 06:45:55;;;;;;;9.43;6.40;;;;;;;;;;5009475;28;99178;-77
2023/09/23 06:48:22;;;;;;;7.90;4.85;;;;;;;;;;5002764;28;100397;-78
2023/09/23 06:50:55;;;;;;;9.20;6.10;;;;;;;;;;5004504;28;98342;-77
2023/09/23 06:53:22;;;;;;;12.30;6.25;;;;;;;;;;5009087;28;99683;-77
2023/09/23 06:55:48;;;;;;;6.95;5.47;;;;;;;;;;5007256;28;100126;-78
2023/09/23 06:58:15;;;;;;;8.02;5.50;;;;;;;;;;5004291;28;98236;-77
2023/09/23 07:00:41;;;;;;;12.40;5.50;;;;;;;;;;5008930;28;99965;-75
2023/09/23 07:03:08;;;;;;;6.97;4.70;;;;;;;;;;5007446;28;98305;-74
2023/09/23 07:05:35;;;;;;;8.50;3.83;;;;;;;;;;4999952;28;99772;-76
2023/09/23 07:08:01;;;;;;;5.40;3.95;;;;;;;;;;5007716;28;100027;-76
2023/09/23 07:10:28;;;;;;;5.05;3.65;;;;;;;;;;5008904;28;98301;-77
2023/09/23 07:12:54;;;;;;;5.15;3.63;;;;;;;;;;5008594;28;98605;-77
2023/09/23 07:15:20;;;;;;;4.53;3.25;;;;;;;;;;5008484;28;100057;-77
2023/09/23 07:17:47;;;;;;;4.95;3.33;;;;;;;;;;5012930;28;98654;-77
2023/09/23 07:20:15;;;;;;;6.38;3.38;;;;;;;;;;4998808;28;99892;-80
2023/09/23 07:22:41;;;;;;;4.43;2.80;;;;;;;;;;5001117;28;99676;-78
2023/09/23 07:25:08;;;;;;;3.03;2.75;;;;;;;;;;5004817;28;99473;-78
2023/09/23 07:27:35;;;;;;;8.77;3.58;;;;;;;;;;5003223;28;99157;-78
2023/09/23 07:30:01;;;;;;;3.50;3.20;;;;;;;;;;5007085;28;99241;-77
2023/09/23 07:32:28;;;;;;;9.15;3.40;;;;;;;;;;5002051;28;99693;-77
2023/09/23 07:34:54;;;;;;;7.38;3.67;;;;;;;;;;5009948;28;99895;-77
2023/09/23 07:37:21;;;;;;;5.75;3.70;;;;;;;;;;5008833;28;98220;-76
2023/09/23 07:39:47;;;;;;;4.60;3.85;;;;;;;;;;5007155;28;100190;-76
2023/09/23 07:42:14;;;;;;;5.43;3.65;;;;;;;;;;4997865;28;99083;-73
2023/09/23 07:44:40;;;;;;;5.15;3.78;;;;;;;;;;5004589;28;99536;-74
2023/09/23 07:47:07;;;;;;;10.60;4.38;;;;;;;;;;5006647;28;98884;-74
2023/09/23 07:49:34;;;;;;;6.18;3.58;;;;;;;;;;5007988;28;98289;-75
2023/09/23 07:52:00;;;;;;;3.50;3.20;;;;;;;;;;5005675;28;100056;-76
2023/09/23 07:54:27;;;;;;;5.47;3.47;;;;;;;;;;5000869;28;100111;-75
2023/09/23 07:56:53;;;;;;;6.28;3.20;;;;;;;;;;4997120;28;99080;-75
2023/09/23 07:59:20;;;;;;;17.77;3.60;;;;;;;;;;5003248;28;99539;-78
2023/09/23 08:01:47;;;;;;;3.08;2.78;;;;;;;;;;5002811;28;100168;-77
2023/09/23 08:04:13;;;;;;;8.02;3.75;;;;;;;;;;5009385;28;99589;-78
2023/09/23 08:06:40;;;;;;;7.45;3.25;;;;;;;;;;5008640;28;100138;-79
2023/09/23 08:09:06;;;;;;;4.82;2.80;;;;;;;;;;5003525;28;98934;-79
2023/09/23 08:11:33;;;;;;;7.80;4.40;;;;;;;;;;4998249;28;100384;-78
2023/09/23 08:13:59;;;;;;;5.45;3.72;;;;;;;;;;5000531;28;99031;-77
2023/09/23 08:16:26;;;;;;;9.13;3.50;;;;;;;;;;5008406;28;98903;-77
2023/09/23 08:18:52;;;;;;;8.50;3.53;;;;;;;;;;5010633;28;99194;-79
2023/09/23 08:21:19;;;;;;;3.33;2.80;;;;;;;;;;5007246;28;99913;-79
2023/09/23 08:23:45;;;;;;;7.88;3.35;;;;;;;;;;5003627;28;99135;-77
2023/09/23 08:26:12;;;;;;;6.47;3.42;;;;;;;;;;5001175;28;99771;-77
2023/09/23 08:28:39;;;;;;;5.07;2.20;;;;;;;;;;5002072;28;98965;-75
2023/09/23 08:31:05;;;;;;;5.07;3.17;;;;;;;;;;5008742;28;99480;-75
2023/09/23 08:33:32;;;;;;;5.88;2.55;;;;;;;;;;5006784;28;99854;-76
2023/09/23 08:35:59;;;;;;;8.90;2.50;;;;;;;;;;5005211;28;98356;-74
2023/09/23 08:38:25;;;;;;;2.80;2.60;;;;;;;;;;5007570;28;99459;-78
2023/09/23 08:40:52;;;;;;;5.00;2.35;;;;;;;;;;5006142;28;100065;-75
2023/09/23 08:43:24;;;;;;;4.80;3.05;;;;;;;;;;5002067;28;99796;-76
2023/09/23 08:45:51;;;;;;;5.82;2.70;;;;;;;;;;5005740;28;99671;-78
2023/09/23 08:48:18;;;;;;;8.45;3.28;;;;;;;;;;5006623;28;98287;-75
2023/09/23 08:50:51;;;;;;;5.70;2.90;;;;;;;;;;5002760;28;99668;-76
2023/09/23 08:53:19;;;;;;;5.03;2.88;;;;;;;;;;4997052;28;99235;-75
2023/09/23 08:55:47;;;;;;;8.80;3.25;;;;;;;;;;5002956;28;99331;-75
2023/09/23 08:58:13;;;;;;;6.63;3.13;;;;;;;;;;4996687;28;99785;-73
2023/09/23 09:00:46;;;;;;;6.10;2.97;;;;;;;;;;5005104;28;99832;-75
2023/09/23 09:03:13;;;;;;;2.38;2.05;;;;;;;;;;4999776;28;99133;-74
2023/09/23 09:05:40;;;;;;;3.60;2.38;;;;;;;;;;5000944;28;98773;-74
2023/09/23 09:08:06;;;;;;;2.65;2.45;;;;;;;;;;5006537;28;99145;-73
2023/09/23 09:10:33;;;;;;;7.82;3.08;;;;;;;;;;5003332;28;100030;-75
2023/09/23 09:13:03;;;;;;;5.25;2.22;;;;;;;;;;5003804;28;99914;-74
2023/09/23 09:15:32;;;;;;;3.17;2.10;;;;;;;;;;5004168;28;98254;-74
2023/09/23 09:17:59;;;;;;;3.65;2.40;;;;;;;;;;5001687;28;99180;-74
2023/09/23 09:20:26;;;;;;;2.72;1.83;;;;;;;;;;4996597;28;99464;-75
2023/09/23 09:22:53;;;;;;;5.38;2.22;;;;;;;;;;4999817;28;98318;-74
2023/09/23 09:25:23;;;;;;;3.40;2.15;;;;;;;;;;5000413;28;99885;-73
2023/09/23 09:27:53;;;;;;;2.97;2.13;;;;;;;;;;5008083;28;99088;-73
2023/09/23 09:30:19;;;;;;;12.43;3.80;;;;;;;;;;5002884;28;100033;-73
2023/09/23 09:32:46;;;;;;;5.05;2.33;;;;;;;;;;4997374;28;99558;-77
2023/09/23 09:35:15;;;;;;;5.97;2.60;;;;;;;;;;4999391;28;99013;-77
2023/09/23 09:37:43;;;;;;;7.07;2.45;;;;;;;;;;5005462;28;99822;-77
2023/09/23 09:40:14;;;;;;;2.47;2.03;;;;;;;;;;5004893;28;100012;-76
2023/09/23 09:42:46;;;;;;;5.57;2.20;;;;;;;;;;5000760;28;98241;-75
2023/09/23 09:45:16;;;;;;;8.02;2.40;;;;;;;;;;4998772;28;99884;-76
2023/09/23 09:47:44;;;;;;;6.40;2.60;;;;;;;;;;4999208;28;100793;-76
2023/09/23 09:50:14;;;;;;;2.88;2.35;;;;;;;;;;5001048;28;99530;-75
2023/09/23 09:52:44;;;;;;;5.05;2.80;;;;;;;;;;4998928;28;100964;-76
2023/09/23 09:55:14;;;;;;;5.15;2.55;;;;;;;;;;4997229;28;99906;-76
2023/09/23 09:57:41;;;;;;;4.90;2.70;;;;;;;;;;4997374;28;99440;-77
2023/09/23 10:00:30;;;;;;;6.10;2.72;;;;;;;;;;4996386;28;99130;-74
2023/09/23 10:03:05;;;;;;;7.30;2.47;;;;;;;;;;5000375;28;99483;-76
2023/09/23 10:05:40;;;;;;;7.25;2.53;;;;;;;;;;4996870;28;100132;-77
2023/09/23 10:08:15;;;;;;;27.85;6.25;;;;;;;;;;5003452;28;100255;-75
2023/09/23 10:10:46;;;;;;;3.90;2.55;;;;;;;;;;5001044;28;99420;-74
2023/09/23 10:13:14;;;;;;;4.18;2.28;;;;;;;;;;5006760;28;98681;-73
2023/09/23 10:15:40;;;;;;;5.85;2.50;;;;;;;;;;5002257;28;99668;-75
2023/09/23 10:18:11;;;;;;;7.35;2.08;;;;;;;;;;4998050;28;99590;-75
2023/09/23 10:20:50;;;;;;;7.32;2.47;;;;;;;;;;4999958;28;98951;-74
2023/09/23 10:23:18;;;;;;;3.00;1.75;;;;;;;;;;4999271;28;100126;-73
2023/09/23 10:25:46;;;;;;;3.38;2.38;;;;;;;;;;4999544;28;100324;-74
2023/09/23 10:28:20;;;;;;;10.80;3.10;;;;;;;;;;5000013;28;99969;-75
2023/09/23 10:30:57;;;;;;;11.50;2.42;;;;;;;;;;4997787;28;98346;-74
2023/09/23 10:33:26;;;;;;;7.30;2.53;;;;;;;;;;4994738;28;99286;-74
2023/09/23 10:35:53;;;;;;;3.28;2.00;;;;;;;;;;5000934;28;102329;-74
2023/09/23 10:38:20;;;;;;;7.47;2.72;;;;;;;;;;4996232;28;99401;-74
2023/09/23 10:40:53;;;;;;;9.65;2.28;;;;;;;;;;4999092;28;100605;-74
2023/09/23 10:43:23;;;;;;;2.75;1.85;;;;;;;;;;4997077;28;99892;-75
2023/09/23 10:45:57;;;;;;;2.05;1.50;;;;;;;;;;5000782;28;99422;-75
2023/09/23 10:48:25;;;;;;;2.40;1.73;;;;;;;;;;4990847;28;99917;-75
2023/09/23 10:50:51;;;;;;;7.78;1.65;;;;;;;;;;4996541;28;101363;-75
2023/09/23 10:53:21;;;;;;;2.97;1.25;;;;;;;;;;5000613;28;99684;-76
2023/09/23 10:55:49;;;;;;;2.90;1.20;;;;;;;;;;5006284;28;99092;-77
2023/09/23 10:58:16;;;;;;;5.55;1.45;;;;;;;;;;5015646;28;98910;-76
2023/09/23 11:00:42;;;;;;;7.20;1.23;;;;;;;;;;4998950;28;100125;-76
2023/09/23 11:03:10;;;;;;;1.75;0.85;;;;;;;;;;4996952;28;98554;-77
2023/09/23 11:05:38;;;;;;;2.03;1.05;;;;;;;;;;5006197;28;100265;-75
2023/09/23 11:08:04;;;;;;;1.38;0.90;;;;;;;;;;5005754;28;100137;-76
2023/09/23 11:10:32;;;;;;;2.58;1.35;;;;;;;;;;5005011;28;99226;-77
2023/09/23 11:12:59;;;;;;;0.73;0.70;;;;;;;;;;5006087;28;99937;-76
2023/09/23 11:15:25;;;;;;;2.20;0.98;;;;;;;;;;5007449;28;100170;-77
2023/09/23 11:17:55;;;;;;;1.27;1.00;;;;;;;;;;5009535;28;98517;-76
2023/09/23 11:20:29;;;;;;;4.18;1.10;;;;;;;;;;5009343;28;98853;-76
2023/09/23 11:23:02;;;;;;;2.17;1.15;;;;;;;;;;5006264;28;99387;-75
2023/09/23 11:25:29;;;;;;;3.47;1.10;;;;;;;;;;5001841;28;98550;-75
2023/09/23 11:27:59;;;;;;;3.35;0.98;;;;;;;;;;5011035;28;100021;-76
2023/09/23 11:30:26;;;;;;;3.42;0.95;;;;;;;;;;5008102;28;99151;-76
2023/09/23 11:32:54;;;;;;;3.40;0.80;;;;;;;;;;5018668;27;98869;-78
2023/09/23 11:35:21;;;;;;;1.25;0.95;;;;;;;;;;5003552;28;99430;-77
2023/09/23 11:37:49;;;;;;;1.75;1.35;;;;;;;;;;5009840;28;98729;-78
2023/09/23 11:40:16;;;;;;;2.55;0.80;;;;;;;;;;5011090;28;99435;-76
2023/09/23 11:42:43;;;;;;;3.13;0.75;;;;;;;;;;5009464;28;98207;-76
2023/09/23 11:45:09;;;;;;;2.05;0.75;;;;;;;;;;5008909;28;99406;-75
2023/09/23 11:47:36;;;;;;;4.38;0.98;;;;;;;;;;5008712;28;100489;-76
2023/09/23 11:50:05;;;;;;;3.03;0.80;;;;;;;;;;5007273;28;98237;-75
2023/09/23 11:52:32;;;;;;;1.98;0.80;;;;;;;;;;5007347;28;99415;-76
2023/09/23 11:55:01;;;;;;;2.70;0.80;;;;;;;;;;5009175;28;99377;-77
2023/09/23 11:57:27;;;;;;;2.85;0.88;;;;;;;;;;5007485;28;98301;-77
2023/09/23 11:59:54;;;;;;;2.33;1.00;;;;;;;;;;5008385;28;99046;-77
2023/09/23 12:02:21;;;;;;;1.75;0.93;;;;;;;;;;5011353;28;100015;-77
2023/09/23 12:04:49;;;;;;;1.48;1.30;;;;;;;;;;5009358;27;99157;-77
2023/09/23 12:07:17;;;;;;;1.35;0.73;;;;;;;;;;5007194;28;99492;-79
2023/09/23 12:09:44;;;;;;;1.40;1.00;;;;;;;;;;5009619;28;98259;-79
2023/09/23 12:12:12;;;;;;;1.30;0.93;;;;;;;;;;5005212;28;99405;-78
2023/09/23 12:14:43;;;;;;;0.60;0.60;;;;;;;;;;5007844;28;99949;-79
2023/09/23 12:17:14;;;;;;;2.20;0.85;;;;;;;;;;5008365;28;98149;-76
2023/09/23 12:19:44;;;;;;;1.70;0.77;;;;;;;;;;5008190;28;100372;-77
2023/09/23 12:22:15;;;;;;;1.75;0.80;;;;;;;;;;5008515;28;100724;-77
2023/09/23 12:24:44;;;;;;;2.08;0.70;;;;;;;;;;5012946;28;98058;-77
2023/09/23 12:27:11;;;;;;;1.58;1.20;;;;;;;;;;5008647;28;100110;-76
2023/09/23 12:29:38;;;;;;;1.35;1.20;;;;;;;;;;5007651;28;98237;-75
2023/09/23 12:32:05;;;;;;;3.72;1.25;;;;;;;;;;5008831;28;99759;-76
2023/09/23 12:34:32;;;;;;;1.30;0.70;;;;;;;;;;5006365;28;100041;-75
2023/09/23 12:36:59;;;;;;;3.50;1.15;;;;;;;;;;5008489;28;98267;-75
2023/09/23 12:39:25;;;;;;;7.68;0.88;;;;;;;;;;5008149;28;99785;-75
2023/09/23 12:41:52;;;;;;;2.92;0.70;;;;;;;;;;5006751;28;100830;-75
2023/09/23 12:44:18;;;;;;;1.48;1.00;;;;;;;;;;5008201;28;98305;-75
2023/09/23 12:46:45;;;;;;;2.60;0.90;;;;;;;;;;5011193;28;99314;-75
2023/09/23 12:49:12;;;;;;;2.03;0.80;;;;;;;;;;5007559;28;98096;-75
2023/09/23 12:51:39;;;;;;;1.13;0.80;;;;;;;;;;5004153;28;101273;-75
2023/09/23 12:54:08;;;;;;;1.23;0.55;;;;;;;;;;5008285;28;99115;-74
2023/09/23 12:56:36;;;;;;;0.55;0.43;;;;;;;;;;5006755;28;98357;-75
2023/09/23 12:59:05;;;;;;;3.25;1.17;;;;;;;;;;5008513;28;100584;-75
2023/09/23 13:01:32;;;;;;;1.10;0.65;;;;;;;;;;5007615;28;99219;-75
2023/09/23 13:03:59;;;;;;;2.35;0.80;;;;;;;;;;4999414;28;98644;-75
2023/09/23 13:06:26;;;;;;;2.17;0.50;;;;;;;;;;5007205;28;99482;-75
2023/09/23 13:08:53;;;;;;;1.25;0.60;;;;;;;;;;5011200;28;99968;-74
2023/09/23 13:11:22;;;;;;;2.65;0.43;;;;;;;;;;5006560;28;98620;-75
2023/09/23 13:13:49;;;;;;;2.58;0.65;;;;;;;;;;5007760;28;99971;-76
2023/09/23 13:16:17;;;;;;;0.77;0.35;;;;;;;;;;5001671;28;98386;-75
2023/09/23 13:18:43;;;;;;;8.15;0.68;;;;;;;;;;5005181;28;99803;-73
2023/09/23 13:21:11;;;;;;;0.98;0.63;;;;;;;;;;5003980;28;98863;-75
2023/09/23 13:23:38;;;;;;;3.63;0.90;;;;;;;;;;4994545;28;98252;-73
2023/09/23 13:26:08;;;;;;;0.60;0.60;;;;;;;;;;5006886;28;99520;-76
2023/09/23 13:28:37;;;;;;;4.35;0.90;;;;;;;;;;4998848;28;98861;-74
2023/09/23 13:31:04;;;;;;;1.27;0.52;;;;;;;;;;5009730;28;99782;-74
2023/09/23 13:33:30;;;;;;;1.75;0.98;;;;;;;;;;5007286;28;99791;-75
2023/09/23 13:35:57;;;;;;;0.47;0.47;;;;;;;;;;5007584;28;99697;-75
2023/09/23 13:38:24;;;;;;;0.43;0.43;;;;;;;;;;5005977;28;98876;-74
2023/09/23 13:40:50;;;;;;;0.98;0.65;;;;;;;;;;5014754;28;99856;-75
2023/09/23 13:43:17;;;;;;;2.80;0.68;;;;;;;;;;5007599;27;98383;-75
2023/09/23 13:45:44;;;;;;;2.65;0.68;;;;;;;;;;5007039;28;99626;-75
2023/09/23 13:48:11;;;;;;;3.38;1.08;;;;;;;;;;5006703;28;100530;-75
2023/09/23 13:50:38;;;;;;;4.22;1.15;;;;;;;;;;5011631;28;98244;-74
2023/09/23 13:53:04;;;;;;;1.48;1.10;;;;;;;;;;5007067;28;99964;-73
2023/09/23 13:55:31;;;;;;;0.60;0.60;;;;;;;;;;5007297;28;99222;-73
2023/09/23 13:57:57;;;;;;;1.30;0.88;;;;;;;;;;5007967;28;99428;-75
2023/09/23 14:00:24;;;;;;;3.33;0.98;;;;;;;;;;5005862;28;102137;-73
2023/09/23 14:02:50;;;;;;;3.38;0.57;;;;;;;;;;5007226;28;100421;-74
2023/09/23 14:05:17;;;;;;;5.97;1.60;;;;;;;;;;5005636;28;98404;-73
2023/09/23 14:07:44;;;;;;;1.25;0.60;;;;;;;;;;5001862;28;99219;-75
2023/09/23 14:10:10;;;;;;;3.35;0.98;;;;;;;;;;5004687;28;98555;-74
2023/09/23 14:12:48;;;;;;;2.33;0.82;;;;;;;;;;5008425;28;99927;-74
2023/09/23 14:15:14;;;;;;;1.10;0.80;;;;;;;;;;5003083;28;100062;-76
2023/09/23 14:17:41;;;;;;;4.60;1.08;;;;;;;;;;5005232;28;99495;-75
2023/09/23 14:20:09;;;;;;;3.15;1.05;;;;;;;;;;5012371;28;99268;-75
2023/09/23 14:22:36;;;;;;;0.90;0.70;;;;;;;;;;5004094;28;100848;-75
2023/09/23 14:25:04;;;;;;;3.35;0.88;;;;;;;;;;5005151;28;99191;-75
2023/09/23 14:27:31;;;;;;;3.72;1.95;;;;;;;;;;4998470;28;100141;-76
2023/09/23 14:29:58;;;;;;;3.30;1.13;;;;;;;;;;5001103;28;100160;-73
2023/09/23 14:32:24;;;;;;;0.70;0.70;;;;;;;;;;4998728;28;99432;-75
2023/09/23 14:34:51;;;;;;;2.65;0.80;;;;;;;;;;5002071;28;99038;-74
2023/09/23 14:37:18;;;;;;;1.92;0.60;;;;;;;;;;5002365;28;99081;-74